Almere Haven Meer informatie Almere Haven


Onweer radar Meer informatie blitzortung!


Regen radar Meer informatie rain snow radar


Apparatuur in gebruik:

Davis VP2

Meteohub

ALIX 1D

Web-Oke


Het weer levert geen direct gevaar op.    Er zijn geen waarschuwingen afgegeven.

METAR rapporten vliegvelden

   
EHAM - Amsterdam/Schiph, Netherlands
Afstand tot: WZW 42 km
Gewijzigd: 17-02-2020 14:55
Licht bewolkt  
Licht bewolkt  
   Wind: ZW 42.6 km/h<br />Gust to 42.6 km/h
Wind: ZW 42.6 km/h
Gust to 42.6 km/h
Temperatuur: 9°C
Voelt als: 4°C
Dauwpunt: 4°C
Vochtigheid: 71%
Barometer: 1009 hPa
Bewolking: Licht bewolkt
Zicht: meer dan 10 km
Bewolking: Licht bewolkt 670.6 m
EHAM 171355Z 23023G34KT 9999 FEW022 09/04 Q1009 NOSIG
EHDL - Deelen Rnlafb, Netherlands
Afstand tot: ZO 49 km
Gewijzigd: 17-02-2020 14:55
Grotendeels bewolkt  
Grotendeels bewolkt  
   Wind: ZW 35.2 km/h
Wind: ZW 35.2 km/h
Temperatuur: 8°C
Voelt als: 4°C
Dauwpunt: 3°C
Vochtigheid: 71%
Barometer: 1010 hPa
Bewolking: Grotendeels bewolkt
Zicht: meer dan 10 km
Bewolking: Licht bewolkt 1249.7 m,
Gedeeltelijk bewolkt 1706.9 m,
Grotendeels bewolkt 1981.2 m
EHDL 171355Z AUTO 23019KT 160V290 9999 FEW041 SCT056 BKN065 08/03 Q1010 BLU
EHKD - De Kooy (navy), Netherlands
Afstand tot: NW 72 km
Gewijzigd: 17-02-2020 14:55
Licht bewolkt  
Licht bewolkt  
   Wind: ZW 37 km/h
Wind: ZW 37 km/h
Temperatuur: 9°C
Voelt als: 5°C
Dauwpunt: 5°C
Vochtigheid: 76%
Barometer: 1007 hPa
Bewolking: Licht bewolkt
Zicht: meer dan 10 km
Bewolking: Licht bewolkt 701 m
EHKD 171355Z AUTO 23020KT 9999 FEW023 09/05 Q1007 BLU 21023G33KT 9999 FEW015
EHRD - Rotterdam Airpor, Netherlands
Afstand tot: ZW 80 km
Gewijzigd: 17-02-2020 14:55
Gedeeltelijk bewolkt  
Gedeeltelijk bewolkt  
   Wind: ZW 40.7 km/h<br />Gust to 40.7 km/h
Wind: ZW 40.7 km/h
Gust to 40.7 km/h
Temperatuur: 9°C
Voelt als: 4°C
Dauwpunt: 4°C
Vochtigheid: 71%
Barometer: 1009 hPa
Bewolking: Gedeeltelijk bewolkt
Zicht: meer dan 10 km
Bewolking: Licht bewolkt 640.1 m,
Gedeeltelijk bewolkt 792.5 m
EHRD 171355Z AUTO 23022G32KT 190V260 9999 FEW021 SCT026 09/04 Q1009 TEMPO 6000 -SHRA SCT025CB
EHVK - Volkel Rnlafb, Netherlands
Afstand tot: ZZO 87 km
Gewijzigd: 17-02-2020 14:55
Grotendeels bewolkt  
Grotendeels bewolkt  
   Wind: WZW 25.9 km/h
Wind: WZW 25.9 km/h
Temperatuur: 7°C
Voelt als: 3°C
Dauwpunt: 4°C
Vochtigheid: 81%
Barometer: 1011 hPa
Bewolking: Grotendeels bewolkt
Zicht: meer dan 10 km
Bewolking: Gedeeltelijk bewolkt 1645.9 m,
Grotendeels bewolkt 1828.8 m,
Grotendeels bewolkt 2072.6 m
EHVK 171355Z AUTO 25014KT 230V300 9999 SCT054 BKN060 BKN068 07/04 Q1011 BLU 23018KT 9999 BKN035 TEMPO 23012G32KT FEW012 SCT020CB BKN025
EHLW - Leeuwarden Rnlaf, Netherlands
Afstand tot: NNO 95 km
Gewijzigd: 17-02-2020 14:55
Licht bewolkt  
Licht bewolkt  
   Wind: ZW 42.6 km/h<br />Gust to 42.6 km/h
Wind: ZW 42.6 km/h
Gust to 42.6 km/h
Temperatuur: 8°C
Voelt als: 3°C
Dauwpunt: 4°C
Vochtigheid: 76%
Barometer: 1006 hPa
Bewolking: Licht bewolkt
Zicht: meer dan 10 km
Bewolking: Licht bewolkt 609.6 m
EHLW 171355Z AUTO 23023G36KT 9999 FEW020 08/04 Q1006 BLU 23022G40KT 9999 FEW020 TEMPO 4500 SHRA FEW015 SCT020CB BKN030

Script ontwikkeld door  Saratoga-weather.org Aangepast voor de template door  Weerstation Leuven

U vindt ons ook hier:

Het Weer Aktueel

UK Metoffice

European Weather Network

Weather Underground

Benelux Weer Netwerk

AWEKAS